createdAt,value
2018-09-14T00:00:09.041Z,1030.47791673
2018-09-14T00:00:21.445Z,1030.47791673
2018-09-14T00:00:33.860Z,1030.47791673
2018-09-14T00:00:46.251Z,1030.47791673
2018-09-14T00:00:58.672Z,1030.47791673
2018-09-14T00:01:11.098Z,1030.47791673
2018-09-14T00:01:23.490Z,1030.47791673
2018-09-14T00:01:35.903Z,1030.47791673
2018-09-14T00:01:48.512Z,1030.47791673
2018-09-14T00:02:00.917Z,1030.47791673
2018-09-14T00:02:13.314Z,1030.54564449
2018-09-14T00:02:25.782Z,1030.54564449
2018-09-14T00:02:38.186Z,1030.54564449
2018-09-14T00:02:50.586Z,1030.54564449
2018-09-14T00:03:03.003Z,1030.44405285
2018-09-14T00:03:15.413Z,1030.44405285
2018-09-14T00:03:28.034Z,1030.44405285
2018-09-14T00:03:40.441Z,1030.44405285
2018-09-14T00:03:52.854Z,1030.44405285
2018-09-14T00:04:05.265Z,1030.47791673
2018-09-14T00:04:17.664Z,1030.47791673
2018-09-14T00:04:30.062Z,1030.47791673
2018-09-14T00:04:42.447Z,1030.47791673
2018-09-14T00:04:54.972Z,1030.47791673
2018-09-14T00:05:07.382Z,1030.54564449
2018-09-14T00:05:19.780Z,1030.54564449
2018-09-14T00:05:32.179Z,1030.54564449
2018-09-14T00:05:44.591Z,1030.54564449
2018-09-14T00:05:56.985Z,1030.54564449
2018-09-14T00:06:09.376Z,1030.51178061
2018-09-14T00:06:21.762Z,1030.51178061
2018-09-14T00:06:34.149Z,1030.51178061
2018-09-14T00:06:46.545Z,1030.51178061
2018-09-14T00:06:58.942Z,1030.51178061
2018-09-14T00:07:11.434Z,1030.44405285
2018-09-14T00:07:23.830Z,1030.44405285
2018-09-14T00:07:36.283Z,1030.44405285
2018-09-14T00:07:48.708Z,1030.44405285
2018-09-14T00:08:01.133Z,1030.44405285
2018-09-14T00:08:13.574Z,1030.47791673
2018-09-14T00:08:26.009Z,1030.47791673
2018-09-14T00:08:38.403Z,1030.47791673
2018-09-14T00:08:50.813Z,1030.47791673
2018-09-14T00:09:03.235Z,1030.41018896
2018-09-14T00:09:15.637Z,1030.41018896
2018-09-14T00:09:28.091Z,1030.41018896
2018-09-14T00:09:40.508Z,1030.41018896
2018-09-14T00:09:52.922Z,1030.41018896
2018-09-14T00:10:05.455Z,1030.41018896
2018-09-14T00:10:17.870Z,1030.41018896
2018-09-14T00:10:30.423Z,1030.41018896
2018-09-14T00:10:42.937Z,1030.41018896
2018-09-14T00:10:55.341Z,1030.41018896
2018-09-14T00:11:07.746Z,1030.37632508
2018-09-14T00:11:20.153Z,1030.37632508
2018-09-14T00:11:32.548Z,1030.37632508
2018-09-14T00:11:45.103Z,1030.37632508
2018-09-14T00:11:57.512Z,1030.37632508
2018-09-14T00:12:09.925Z,1030.37632508
2018-09-14T00:12:22.315Z,1030.37632508
2018-09-14T00:12:34.841Z,1030.37632508
2018-09-14T00:12:47.239Z,1030.37632508
2018-09-14T00:12:59.779Z,1030.37632508
2018-09-14T00:13:12.174Z,1030.3424612
2018-09-14T00:13:24.709Z,1030.3424612
2018-09-14T00:13:37.133Z,1030.3424612
2018-09-14T00:13:49.527Z,1030.3424612
2018-09-14T00:14:01.954Z,1030.3424612
2018-09-14T00:14:14.355Z,1030.41018896
2018-09-14T00:14:26.784Z,1030.41018896
2018-09-14T00:14:39.201Z,1030.41018896
2018-09-14T00:14:51.599Z,1030.41018896
2018-09-14T00:15:04.095Z,1030.41018896
2018-09-14T00:15:16.549Z,1030.41018896
2018-09-14T00:15:28.986Z,1030.41018896
2018-09-14T00:15:41.509Z,1030.41018896
2018-09-14T00:15:53.892Z,1030.41018896
2018-09-14T00:16:06.347Z,1030.3424612
2018-09-14T00:16:18.742Z,1030.3424612
2018-09-14T00:16:31.142Z,1030.3424612
2018-09-14T00:16:43.547Z,1030.3424612
2018-09-14T00:16:55.952Z,1030.3424612
2018-09-14T00:17:08.341Z,1030.41018896
2018-09-14T00:17:20.750Z,1030.41018896
2018-09-14T00:17:33.189Z,1030.41018896
2018-09-14T00:17:45.598Z,1030.41018896
2018-09-14T00:17:58.032Z,1030.41018896
2018-09-14T00:18:10.443Z,1030.47791673
2018-09-14T00:18:22.854Z,1030.47791673
2018-09-14T00:18:35.274Z,1030.47791673
2018-09-14T00:18:47.681Z,1030.47791673
2018-09-14T00:19:00.062Z,1030.47791673
2018-09-14T00:19:12.496Z,1030.37632508
2018-09-14T00:19:24.953Z,1030.37632508
2018-09-14T00:19:37.355Z,1030.37632508
2018-09-14T00:19:49.739Z,1030.37632508
2018-09-14T00:20:02.147Z,1030.37632508
2018-09-14T00:20:14.538Z,1030.37632508
2018-09-14T00:20:26.940Z,1030.37632508
2018-09-14T00:20:39.366Z,1030.37632508
2018-09-14T00:20:51.785Z,1030.37632508
2018-09-14T00:21:04.200Z,1030.3424612
2018-09-14T00:21:16.844Z,1030.3424612
2018-09-14T00:21:29.238Z,1030.3424612
2018-09-14T00:21:41.642Z,1030.3424612
2018-09-14T00:21:54.046Z,1030.3424612
2018-09-14T00:22:06.489Z,1030.30859732
2018-09-14T00:22:18.890Z,1030.30859732
2018-09-14T00:22:31.288Z,1030.30859732
2018-09-14T00:22:43.866Z,1030.30859732
2018-09-14T00:22:56.518Z,1030.30859732
2018-09-14T00:23:08.965Z,1030.24086956
2018-09-14T00:23:21.532Z,1030.24086956
2018-09-14T00:23:33.941Z,1030.24086956
2018-09-14T00:23:46.338Z,1030.24086956
2018-09-14T00:23:58.896Z,1030.24086956
2018-09-14T00:24:11.321Z,1030.30859732
2018-09-14T00:24:23.729Z,1030.30859732
2018-09-14T00:24:36.166Z,1030.30859732
2018-09-14T00:24:48.569Z,1030.30859732
2018-09-14T00:25:01.043Z,1030.30859732
2018-09-14T00:25:13.489Z,1030.30859732
2018-09-14T00:25:25.913Z,1030.30859732
2018-09-14T00:25:38.329Z,1030.30859732
2018-09-14T00:25:50.790Z,1030.30859732
2018-09-14T00:26:03.223Z,1030.30859732
2018-09-14T00:26:15.656Z,1030.30859732
2018-09-14T00:26:28.060Z,1030.30859732
2018-09-14T00:26:40.450Z,1030.30859732
2018-09-14T00:26:52.864Z,1030.30859732
2018-09-14T00:27:05.284Z,1030.37632508
2018-09-14T00:27:17.710Z,1030.37632508
2018-09-14T00:27:30.113Z,1030.37632508
2018-09-14T00:27:42.543Z,1030.37632508
2018-09-14T00:27:54.979Z,1030.37632508
2018-09-14T00:28:07.401Z,1030.27473344
2018-09-14T00:28:19.816Z,1030.27473344
2018-09-14T00:28:32.239Z,1030.27473344
2018-09-14T00:28:44.657Z,1030.27473344
2018-09-14T00:28:57.057Z,1030.27473344
2018-09-14T00:29:09.485Z,1030.3424612
2018-09-14T00:29:21.907Z,1030.3424612
2018-09-14T00:29:34.303Z,1030.3424612
2018-09-14T00:29:46.697Z,1030.3424612
2018-09-14T00:29:59.127Z,1030.3424612
2018-09-14T00:30:11.563Z,1030.30859732
2018-09-14T00:30:23.982Z,1030.30859732
2018-09-14T00:30:36.390Z,1030.30859732
2018-09-14T00:30:48.818Z,1030.30859732
2018-09-14T00:31:01.220Z,1030.30859732
2018-09-14T00:31:13.686Z,1030.3424612
2018-09-14T00:31:26.673Z,1030.3424612
2018-09-14T00:31:39.084Z,1030.3424612
2018-09-14T00:31:51.533Z,1030.3424612
2018-09-14T00:32:03.977Z,1030.41018896
2018-09-14T00:32:16.396Z,1030.41018896
2018-09-14T00:32:28.807Z,1030.41018896
2018-09-14T00:32:41.209Z,1030.41018896
2018-09-14T00:32:53.593Z,1030.41018896
2018-09-14T00:33:05.986Z,1030.30859732
2018-09-14T00:33:18.647Z,1030.30859732
2018-09-14T00:33:31.190Z,1030.30859732
2018-09-14T00:33:43.766Z,1030.30859732
2018-09-14T00:33:56.175Z,1030.30859732
2018-09-14T00:34:08.570Z,1030.37632508
2018-09-14T00:34:20.966Z,1030.37632508
2018-09-14T00:34:33.366Z,1030.37632508
2018-09-14T00:34:45.775Z,1030.37632508
2018-09-14T00:34:58.301Z,1030.37632508
2018-09-14T00:35:10.713Z,1030.37632508
2018-09-14T00:35:23.097Z,1030.37632508
2018-09-14T00:35:35.498Z,1030.37632508
2018-09-14T00:35:47.901Z,1030.37632508
2018-09-14T00:36:00.295Z,1030.37632508
2018-09-14T00:36:12.694Z,1030.30859732
2018-09-14T00:36:25.100Z,1030.30859732
2018-09-14T00:36:37.563Z,1030.30859732
2018-09-14T00:36:49.966Z,1030.30859732
2018-09-14T00:37:02.373Z,1030.30859732
2018-09-14T00:37:14.790Z,1030.20700568
2018-09-14T00:37:27.196Z,1030.20700568
2018-09-14T00:37:39.579Z,1030.20700568
2018-09-14T00:37:51.986Z,1030.20700568
2018-09-14T00:38:04.396Z,1030.27473344
2018-09-14T00:38:16.807Z,1030.27473344
2018-09-14T00:38:29.217Z,1030.27473344
2018-09-14T00:38:41.646Z,1030.27473344
2018-09-14T00:38:54.074Z,1030.27473344
2018-09-14T00:39:06.478Z,1030.27473344
2018-09-14T00:39:18.871Z,1030.27473344
2018-09-14T00:39:31.292Z,1030.27473344
2018-09-14T00:39:43.699Z,1030.27473344
2018-09-14T00:39:56.105Z,1030.27473344
2018-09-14T00:40:08.531Z,1030.30859732
2018-09-14T00:40:21.336Z,1030.30859732
2018-09-14T00:40:33.756Z,1030.30859732
2018-09-14T00:40:46.154Z,1030.30859732
2018-09-14T00:40:58.546Z,1030.30859732
2018-09-14T00:41:10.931Z,1030.30859732
2018-09-14T00:41:23.325Z,1030.30859732
2018-09-14T00:41:35.741Z,1030.30859732
2018-09-14T00:41:48.157Z,1030.30859732
2018-09-14T00:42:00.559Z,1030.30859732
2018-09-14T00:42:12.944Z,1030.27473344
2018-09-14T00:42:25.329Z,1030.27473344
2018-09-14T00:42:37.731Z,1030.27473344
2018-09-14T00:42:50.127Z,1030.27473344
2018-09-14T00:43:02.533Z,1030.20700568
2018-09-14T00:43:14.939Z,1030.20700568
2018-09-14T00:43:27.372Z,1030.20700568
2018-09-14T00:43:39.783Z,1030.20700568
2018-09-14T00:43:52.203Z,1030.20700568
2018-09-14T00:44:04.611Z,1030.20700568
2018-09-14T00:44:17.008Z,1030.20700568
2018-09-14T00:44:29.416Z,1030.20700568
2018-09-14T00:44:41.852Z,1030.20700568
2018-09-14T00:44:54.260Z,1030.20700568
2018-09-14T00:45:06.704Z,1030.17314179
2018-09-14T00:45:19.209Z,1030.17314179
2018-09-14T00:45:31.616Z,1030.17314179
2018-09-14T00:45:44.019Z,1030.17314179
2018-09-14T00:45:56.416Z,1030.17314179
2018-09-14T00:46:08.830Z,1030.17314179
2018-09-14T00:46:21.277Z,1030.17314179
2018-09-14T00:46:33.686Z,1030.17314179
2018-09-14T00:46:46.094Z,1030.17314179
2018-09-14T00:46:58.892Z,1030.17314179
2018-09-14T00:47:11.307Z,1030.24086956
2018-09-14T00:47:23.730Z,1030.24086956
2018-09-14T00:47:36.210Z,1030.24086956
2018-09-14T00:47:48.618Z,1030.24086956
2018-09-14T00:48:01.091Z,1030.24086956
2018-09-14T00:48:13.557Z,1030.27473344
2018-09-14T00:48:26.010Z,1030.27473344
2018-09-14T00:48:38.413Z,1030.27473344
2018-09-14T00:48:50.820Z,1030.27473344
2018-09-14T00:49:03.225Z,1030.20700568
2018-09-14T00:49:15.766Z,1030.20700568
2018-09-14T00:49:28.195Z,1030.20700568
2018-09-14T00:49:40.682Z,1030.20700568
2018-09-14T00:49:53.090Z,1030.20700568
2018-09-14T00:50:05.499Z,1030.20700568
2018-09-14T00:50:17.910Z,1030.20700568
2018-09-14T00:50:30.307Z,1030.20700568
2018-09-14T00:50:42.711Z,1030.20700568
2018-09-14T00:50:55.163Z,1030.20700568
2018-09-14T00:51:07.616Z,1030.27473344
2018-09-14T00:51:20.037Z,1030.27473344
2018-09-14T00:51:32.436Z,1030.27473344
2018-09-14T00:51:44.832Z,1030.27473344
2018-09-14T00:51:57.231Z,1030.27473344
2018-09-14T00:52:09.656Z,1030.30859732
2018-09-14T00:52:22.065Z,1030.30859732
2018-09-14T00:52:34.459Z,1030.30859732
2018-09-14T00:52:46.865Z,1030.30859732
2018-09-14T00:52:59.252Z,1030.30859732
2018-09-14T00:53:11.677Z,1030.24086956
2018-09-14T00:53:24.090Z,1030.24086956
2018-09-14T00:53:36.499Z,1030.24086956
2018-09-14T00:53:48.917Z,1030.24086956
2018-09-14T00:54:01.323Z,1030.24086956
2018-09-14T00:54:13.741Z,1030.27473344
2018-09-14T00:54:26.382Z,1030.27473344
2018-09-14T00:54:38.780Z,1030.27473344
2018-09-14T00:54:51.192Z,1030.27473344
2018-09-14T00:55:03.587Z,1030.30859732
2018-09-14T00:55:15.994Z,1030.30859732
2018-09-14T00:55:28.443Z,1030.30859732
2018-09-14T00:55:40.879Z,1030.30859732
2018-09-14T00:55:53.324Z,1030.30859732
2018-09-14T00:56:05.729Z,1030.37632508
2018-09-14T00:56:18.142Z,1030.37632508
2018-09-14T00:56:30.701Z,1030.37632508
2018-09-14T00:56:43.105Z,1030.37632508
2018-09-14T00:56:55.512Z,1030.37632508
2018-09-14T00:57:07.914Z,1030.27473344
2018-09-14T00:57:20.315Z,1030.27473344
2018-09-14T00:57:32.725Z,1030.27473344
2018-09-14T00:57:45.122Z,1030.27473344
2018-09-14T00:57:57.536Z,1030.27473344
2018-09-14T00:58:09.937Z,1030.27473344
2018-09-14T00:58:22.349Z,1030.27473344
2018-09-14T00:58:34.761Z,1030.27473344
2018-09-14T00:58:47.181Z,1030.27473344
2018-09-14T00:58:59.663Z,1030.27473344
2018-09-14T00:59:12.085Z,1030.24086956
2018-09-14T00:59:24.492Z,1030.24086956
2018-09-14T00:59:36.900Z,1030.24086956
2018-09-14T00:59:49.321Z,1030.24086956
2018-09-14T01:00:01.737Z,1030.24086956
2018-09-14T01:00:14.155Z,1030.27473344
2018-09-14T01:00:26.583Z,1030.27473344
2018-09-14T01:00:39.023Z,1030.27473344
2018-09-14T01:00:51.474Z,1030.27473344
2018-09-14T01:01:03.886Z,1030.24086956
2018-09-14T01:01:16.328Z,1030.24086956
2018-09-14T01:01:28.808Z,1030.24086956
2018-09-14T01:01:41.218Z,1030.24086956
2018-09-14T01:01:53.630Z,1030.24086956
2018-09-14T01:02:06.014Z,1030.27473344
2018-09-14T01:02:18.548Z,1030.27473344
2018-09-14T01:02:30.959Z,1030.27473344
2018-09-14T01:02:43.390Z,1030.27473344
2018-09-14T01:02:55.795Z,1030.27473344
2018-09-14T01:03:08.232Z,1030.24086956
2018-09-14T01:03:20.694Z,1030.24086956
2018-09-14T01:03:33.111Z,1030.24086956
2018-09-14T01:03:45.575Z,1030.24086956
2018-09-14T01:03:58.017Z,1030.24086956
2018-09-14T01:04:10.694Z,1030.24086956
2018-09-14T01:04:23.115Z,1030.24086956
2018-09-14T01:04:35.575Z,1030.24086956
2018-09-14T01:04:48.007Z,1030.24086956
2018-09-14T01:05:00.399Z,1030.24086956
2018-09-14T01:05:12.832Z,1030.17314179
2018-09-14T01:05:25.250Z,1030.17314179
2018-09-14T01:05:37.677Z,1030.17314179
2018-09-14T01:05:50.087Z,1030.17314179
2018-09-14T01:06:02.498Z,1030.17314179
2018-09-14T01:06:14.901Z,1030.27473344
2018-09-14T01:06:27.351Z,1030.27473344
2018-09-14T01:06:39.758Z,1030.27473344
2018-09-14T01:06:52.232Z,1030.27473344
2018-09-14T01:07:04.655Z,1030.27473344
2018-09-14T01:07:17.058Z,1030.27473344
2018-09-14T01:07:29.462Z,1030.27473344
2018-09-14T01:07:41.883Z,1030.27473344
2018-09-14T01:07:54.288Z,1030.27473344
2018-09-14T01:08:06.705Z,1030.24086956
2018-09-14T01:08:19.106Z,1030.24086956
2018-09-14T01:08:31.554Z,1030.24086956
2018-09-14T01:08:43.954Z,1030.24086956
2018-09-14T01:08:56.405Z,1030.24086956
2018-09-14T01:09:08.822Z,1030.17314179
2018-09-14T01:09:21.216Z,1030.17314179
2018-09-14T01:09:33.637Z,1030.17314179
2018-09-14T01:09:46.048Z,1030.17314179
2018-09-14T01:09:58.447Z,1030.17314179
2018-09-14T01:10:10.847Z,1030.20700568
2018-09-14T01:10:23.318Z,1030.20700568
2018-09-14T01:10:36.685Z,1030.20700568
2018-09-14T01:10:49.096Z,1030.20700568
2018-09-14T01:11:01.503Z,1030.20700568
2018-09-14T01:11:13.923Z,1030.27473344
2018-09-14T01:11:26.318Z,1030.27473344
2018-09-14T01:11:38.734Z,1030.27473344
2018-09-14T01:11:51.138Z,1030.27473344
2018-09-14T01:12:03.592Z,1030.27473344
2018-09-14T01:12:16.088Z,1030.27473344
2018-09-14T01:12:28.644Z,1030.27473344
2018-09-14T01:12:41.037Z,1030.27473344
2018-09-14T01:12:53.448Z,1030.27473344
2018-09-14T01:13:05.862Z,1030.27473344
2018-09-14T01:13:18.382Z,1030.27473344
2018-09-14T01:13:30.797Z,1030.27473344
2018-09-14T01:13:43.178Z,1030.27473344
2018-09-14T01:13:55.575Z,1030.27473344
2018-09-14T01:14:08.039Z,1030.24086956
2018-09-14T01:14:20.499Z,1030.24086956
2018-09-14T01:14:32.921Z,1030.24086956
2018-09-14T01:14:45.330Z,1030.24086956
2018-09-14T01:14:57.741Z,1030.24086956
2018-09-14T01:15:10.169Z,1030.20700568
2018-09-14T01:15:22.604Z,1030.20700568
2018-09-14T01:15:35.007Z,1030.20700568
2018-09-14T01:15:47.408Z,1030.20700568
2018-09-14T01:15:59.808Z,1030.20700568
2018-09-14T01:16:12.233Z,1030.20700568
2018-09-14T01:16:24.636Z,1030.20700568
2018-09-14T01:16:37.049Z,1030.20700568
2018-09-14T01:16:49.464Z,1030.20700568
2018-09-14T01:17:01.953Z,1030.20700568
2018-09-14T01:17:15.045Z,1030.20700568
2018-09-14T01:17:28.608Z,1030.20700568
2018-09-14T01:17:41.016Z,1030.20700568
2018-09-14T01:17:53.433Z,1030.20700568
2018-09-14T01:18:05.893Z,1030.17314179
2018-09-14T01:18:18.291Z,1030.17314179
2018-09-14T01:18:30.692Z,1030.17314179
2018-09-14T01:18:43.154Z,1030.17314179
2018-09-14T01:18:55.545Z,1030.17314179
2018-09-14T01:19:07.961Z,1030.24086956
2018-09-14T01:19:20.384Z,1030.24086956
2018-09-14T01:19:32.791Z,1030.24086956
2018-09-14T01:19:45.257Z,1030.24086956
2018-09-14T01:19:57.673Z,1030.24086956
2018-09-14T01:20:10.604Z,1030.13927791
2018-09-14T01:20:24.192Z,1030.13927791
2018-09-14T01:20:36.587Z,1030.13927791
2018-09-14T01:20:49.146Z,1030.13927791
2018-09-14T01:21:01.555Z,1030.13927791
2018-09-14T01:21:14.028Z,1030.20700568
2018-09-14T01:21:26.439Z,1030.20700568
2018-09-14T01:21:38.908Z,1030.20700568
2018-09-14T01:21:51.376Z,1030.20700568
2018-09-14T01:22:03.811Z,1030.24086956
2018-09-14T01:22:16.215Z,1030.24086956
2018-09-14T01:22:28.623Z,1030.24086956
2018-09-14T01:22:41.106Z,1030.24086956
2018-09-14T01:22:53.621Z,1030.24086956
2018-09-14T01:23:06.040Z,1030.17314179
2018-09-14T01:23:18.576Z,1030.17314179
2018-09-14T01:23:30.999Z,1030.17314179
2018-09-14T01:23:43.423Z,1030.17314179
2018-09-14T01:23:55.849Z,1030.17314179
2018-09-14T01:24:08.663Z,1030.24086956
2018-09-14T01:24:21.084Z,1030.24086956
2018-09-14T01:24:33.493Z,1030.24086956
2018-09-14T01:24:45.932Z,1030.24086956
2018-09-14T01:24:58.333Z,1030.24086956
2018-09-14T01:25:10.773Z,1030.13927791
2018-09-14T01:25:23.200Z,1030.13927791
2018-09-14T01:25:35.607Z,1030.13927791
2018-09-14T01:25:48.156Z,1030.13927791
2018-09-14T01:26:00.597Z,1030.13927791
2018-09-14T01:26:13.012Z,1030.20700568
2018-09-14T01:26:25.430Z,1030.20700568
2018-09-14T01:26:37.881Z,1030.20700568
2018-09-14T01:26:50.295Z,1030.20700568
2018-09-14T01:27:02.736Z,1030.20700568
2018-09-14T01:27:15.163Z,1030.20700568
2018-09-14T01:27:27.623Z,1030.20700568
2018-09-14T01:27:40.022Z,1030.20700568
2018-09-14T01:27:52.444Z,1030.20700568
2018-09-14T01:28:04.858Z,1030.20700568
2018-09-14T01:28:17.268Z,1030.20700568
2018-09-14T01:28:29.676Z,1030.20700568
2018-09-14T01:28:42.138Z,1030.20700568
2018-09-14T01:28:54.537Z,1030.20700568
2018-09-14T01:29:06.954Z,1030.27473344
2018-09-14T01:29:19.410Z,1030.27473344
2018-09-14T01:29:31.833Z,1030.27473344
2018-09-14T01:29:44.266Z,1030.27473344
2018-09-14T01:29:56.674Z,1030.27473344
2018-09-14T01:30:09.124Z,1030.17314179
2018-09-14T01:30:21.537Z,1030.17314179
2018-09-14T01:30:33.935Z,1030.17314179
2018-09-14T01:30:46.349Z,1030.17314179
2018-09-14T01:30:58.757Z,1030.17314179
2018-09-14T01:31:11.178Z,1030.20700568
2018-09-14T01:31:23.583Z,1030.20700568
2018-09-14T01:31:35.996Z,1030.20700568
2018-09-14T01:31:48.399Z,1030.20700568
2018-09-14T01:32:00.804Z,1030.20700568
2018-09-14T01:32:13.228Z,1030.24086956
2018-09-14T01:32:25.631Z,1030.24086956
2018-09-14T01:32:38.044Z,1030.24086956
2018-09-14T01:32:50.466Z,1030.24086956
2018-09-14T01:33:02.885Z,1030.20700568
2018-09-14T01:33:15.293Z,1030.20700568
2018-09-14T01:33:27.689Z,1030.20700568
2018-09-14T01:33:40.396Z,1030.20700568
2018-09-14T01:33:52.813Z,1030.20700568
2018-09-14T01:34:05.207Z,1030.20700568
2018-09-14T01:34:17.880Z,1030.20700568
2018-09-14T01:34:30.321Z,1030.20700568
2018-09-14T01:34:42.722Z,1030.20700568
2018-09-14T01:34:55.128Z,1030.20700568
2018-09-14T01:35:07.526Z,1030.27473344
2018-09-14T01:35:19.931Z,1030.27473344
2018-09-14T01:35:32.342Z,1030.27473344
2018-09-14T01:35:44.748Z,1030.27473344
2018-09-14T01:35:57.146Z,1030.27473344
2018-09-14T01:36:09.562Z,1030.27473344
2018-09-14T01:36:21.962Z,1030.27473344
2018-09-14T01:36:34.365Z,1030.27473344
2018-09-14T01:36:46.764Z,1030.27473344
2018-09-14T01:36:59.159Z,1030.27473344
2018-09-14T01:37:11.561Z,1030.27473344
2018-09-14T01:37:23.995Z,1030.27473344
2018-09-14T01:37:36.401Z,1030.27473344
2018-09-14T01:37:48.789Z,1030.27473344
2018-09-14T01:38:01.202Z,1030.27473344
2018-09-14T01:38:13.611Z,1030.24086956
2018-09-14T01:38:25.991Z,1030.24086956
2018-09-14T01:38:38.380Z,1030.24086956
2018-09-14T01:38:50.779Z,1030.24086956
2018-09-14T01:39:03.179Z,1030.27473344
2018-09-14T01:39:15.654Z,1030.27473344
2018-09-14T01:39:28.044Z,1030.27473344
2018-09-14T01:39:40.456Z,1030.27473344
2018-09-14T01:39:52.854Z,1030.27473344
2018-09-14T01:40:05.261Z,1030.27473344
2018-09-14T01:40:17.894Z,1030.27473344
2018-09-14T01:40:30.300Z,1030.27473344
2018-09-14T01:40:42.684Z,1030.27473344
2018-09-14T01:40:55.084Z,1030.27473344
2018-09-14T01:41:07.484Z,1030.30859732
2018-09-14T01:41:19.932Z,1030.30859732
2018-09-14T01:41:32.341Z,1030.30859732
2018-09-14T01:41:44.730Z,1030.30859732
2018-09-14T01:41:57.119Z,1030.30859732
2018-09-14T01:42:09.661Z,1030.27473344
2018-09-14T01:42:22.172Z,1030.27473344
2018-09-14T01:42:34.580Z,1030.27473344
2018-09-14T01:42:46.982Z,1030.27473344
2018-09-14T01:42:59.426Z,1030.27473344
2018-09-14T01:43:11.853Z,1030.3424612
2018-09-14T01:43:24.418Z,1030.3424612
2018-09-14T01:43:36.826Z,1030.3424612
2018-09-14T01:43:49.215Z,1030.3424612
2018-09-14T01:44:01.709Z,1030.3424612
2018-09-14T01:44:14.133Z,1030.30859732
2018-09-14T01:44:26.546Z,1030.30859732
2018-09-14T01:44:38.977Z,1030.30859732
2018-09-14T01:44:51.392Z,1030.30859732
2018-09-14T01:45:03.813Z,1030.3424612
2018-09-14T01:45:16.217Z,1030.3424612
2018-09-14T01:45:28.610Z,1030.3424612
2018-09-14T01:45:41.001Z,1030.3424612
2018-09-14T01:45:53.387Z,1030.3424612
2018-09-14T01:46:05.770Z,1030.30859732
2018-09-14T01:46:18.158Z,1030.30859732
2018-09-14T01:46:30.576Z,1030.30859732
2018-09-14T01:46:42.975Z,1030.30859732
2018-09-14T01:46:55.387Z,1030.30859732
2018-09-14T01:47:07.880Z,1030.30859732
2018-09-14T01:47:20.306Z,1030.30859732
2018-09-14T01:47:32.703Z,1030.30859732
2018-09-14T01:47:45.130Z,1030.30859732
2018-09-14T01:47:57.547Z,1030.30859732
2018-09-14T01:48:09.966Z,1030.17314179
2018-09-14T01:48:22.380Z,1030.17314179
2018-09-14T01:48:34.784Z,1030.17314179
2018-09-14T01:48:47.194Z,1030.17314179
2018-09-14T01:48:59.611Z,1030.17314179
2018-09-14T01:49:12.013Z,1030.20700568
2018-09-14T01:49:24.493Z,1030.20700568
2018-09-14T01:49:36.901Z,1030.20700568
2018-09-14T01:49:49.310Z,1030.20700568
2018-09-14T01:50:01.740Z,1030.20700568
2018-09-14T01:50:14.156Z,1030.24086956
2018-09-14T01:50:26.550Z,1030.24086956
2018-09-14T01:50:38.961Z,1030.24086956
2018-09-14T01:50:51.386Z,1030.24086956
2018-09-14T01:51:03.784Z,1030.20700568
2018-09-14T01:51:16.168Z,1030.20700568
2018-09-14T01:51:28.560Z,1030.20700568
2018-09-14T01:51:40.964Z,1030.20700568
2018-09-14T01:51:53.357Z,1030.20700568
2018-09-14T01:52:05.747Z,1030.27473344
2018-09-14T01:52:18.157Z,1030.27473344
2018-09-14T01:52:30.553Z,1030.27473344
2018-09-14T01:52:42.962Z,1030.27473344
2018-09-14T01:52:55.355Z,1030.27473344
2018-09-14T01:53:07.760Z,1030.13927791
2018-09-14T01:53:20.160Z,1030.13927791
2018-09-14T01:53:32.563Z,1030.13927791
2018-09-14T01:53:44.964Z,1030.13927791
2018-09-14T01:53:57.391Z,1030.13927791
2018-09-14T01:54:09.784Z,1030.13927791
2018-09-14T01:54:22.334Z,1030.13927791
2018-09-14T01:54:34.738Z,1030.13927791
2018-09-14T01:54:47.145Z,1030.13927791
2018-09-14T01:54:59.545Z,1030.13927791
2018-09-14T01:55:11.938Z,1030.24086956
2018-09-14T01:55:24.340Z,1030.24086956
2018-09-14T01:55:36.765Z,1030.24086956
2018-09-14T01:55:49.177Z,1030.24086956
2018-09-14T01:56:01.575Z,1030.24086956
2018-09-14T01:56:13.990Z,1030.13927791
2018-09-14T01:56:26.393Z,1030.13927791
2018-09-14T01:56:38.797Z,1030.13927791
2018-09-14T01:56:51.200Z,1030.13927791
2018-09-14T01:57:03.614Z,1030.20700568
2018-09-14T01:57:16.026Z,1030.20700568
2018-09-14T01:57:28.420Z,1030.20700568
2018-09-14T01:57:40.829Z,1030.20700568
2018-09-14T01:57:53.440Z,1030.20700568
2018-09-14T01:58:05.857Z,1030.13927791
2018-09-14T01:58:18.299Z,1030.13927791
2018-09-14T01:58:30.709Z,1030.13927791
2018-09-14T01:58:43.099Z,1030.13927791
2018-09-14T01:58:55.497Z,1030.13927791
2018-09-14T01:59:07.903Z,1030.13927791
2018-09-14T01:59:20.323Z,1030.13927791
2018-09-14T01:59:32.727Z,1030.13927791
2018-09-14T01:59:45.131Z,1030.13927791
2018-09-14T01:59:57.524Z,1030.13927791
2018-09-14T02:00:09.946Z,1030.10541403
2018-09-14T02:00:22.391Z,1030.10541403
2018-09-14T02:00:34.822Z,1030.10541403
2018-09-14T02:00:47.302Z,1030.10541403
2018-09-14T02:00:59.772Z,1030.10541403
2018-09-14T02:01:12.231Z,1030.20700568
2018-09-14T02:01:24.657Z,1030.20700568
2018-09-14T02:01:37.053Z,1030.20700568
2018-09-14T02:01:49.506Z,1030.20700568
2018-09-14T02:02:01.910Z,1030.20700568
2018-09-14T02:02:14.337Z,1030.10541403
2018-09-14T02:02:26.909Z,1030.10541403
2018-09-14T02:02:39.347Z,1030.10541403
2018-09-14T02:02:51.758Z,1030.10541403
2018-09-14T02:03:04.168Z,1030.13927791
2018-09-14T02:03:16.937Z,1030.13927791
2018-09-14T02:03:30.318Z,1030.13927791
2018-09-14T02:03:43.207Z,1030.13927791
2018-09-14T02:03:55.617Z,1030.13927791
2018-09-14T02:04:08.018Z,1030.10541403
2018-09-14T02:04:20.444Z,1030.10541403
2018-09-14T02:04:32.858Z,1030.10541403
2018-09-14T02:04:45.273Z,1030.10541403
2018-09-14T02:04:57.878Z,1030.10541403
2018-09-14T02:05:10.288Z,1030.10541403
2018-09-14T02:05:22.694Z,1030.10541403
2018-09-14T02:05:35.104Z,1030.10541403
2018-09-14T02:05:47.498Z,1030.10541403
2018-09-14T02:05:59.912Z,1030.10541403
2018-09-14T02:06:12.340Z,1030.20700568
2018-09-14T02:06:24.738Z,1030.20700568
2018-09-14T02:06:37.146Z,1030.20700568
2018-09-14T02:06:49.713Z,1030.20700568
2018-09-14T02:07:02.134Z,1030.20700568
2018-09-14T02:07:14.564Z,1030.10541403
2018-09-14T02:07:26.966Z,1030.10541403